Strasburg, Virginia
Current Conditions -  °F | °C
As of 9:15 AM on Tuesday 27 Jan 2015 (Local Time) from KFRR Reporting Station
Overcast Overcast  
Wind Chill: 21°   Ceiling: 4300
Heat Index: 28°   Visibility: 5mi
Dew Point: 21°   Wind: 7mph
Humidity: 74%   Direction: 300°WNW
Pressure: 29.83"   Gusts: NA
Location:  38.99°N, 78.36°W
Report Text: KFRR 271415Z AUTO 30006KT 5SM BKN043 BKN055 OVC070 M02/M06 A2983 RMK AO1
Loading
Personal Weather Stations






























Interactive Weather Map New forecast layout! Learn more

10-Day Weather Forecast

Advertisements
Track Severe Weather on mobile